Time;durP1;ratioP1;P1;durP2;ratioP2;P2;SDS_P1;SDS_P2;PMS_P1;PMS_P2;Temp;Humidity;BMP_temperature;BMP_pressure;BME280_temperature;BME280_humidity;BME280_pressure;Samples;Min_cycle;Max_cycle;Signal;HPM_P1;HPM_P2
2021/05/11 00:01:00;;;;;;;15.10;2.70;;;;;;;;;;745201;185;919126;-71
2021/05/11 00:03:26;;;;;;;5.28;2.58;;;;;;;;;;748486;185;921843;-74
2021/05/11 00:05:51;;;;;;;3.00;2.03;;;;;;;;;;741541;184;1080476;-76
2021/05/11 00:08:17;;;;;;;6.90;2.65;;;;;;;;;;744666;185;919056;-76
2021/05/11 00:10:43;;;;;;;6.73;2.93;;;;;;;;;;746669;185;866982;-70
2021/05/11 00:13:09;;;;;;;4.23;2.90;;;;;;;;;;747478;184;919596;-74
2021/05/11 00:15:35;;;;;;;5.33;2.53;;;;;;;;;;745984;187;921281;-77
2021/05/11 00:18:01;;;;;;;5.47;2.73;;;;;;;;;;744613;186;919132;-71
2021/05/11 00:20:27;;;;;;;3.37;2.03;;;;;;;;;;750252;187;919209;-75
2021/05/11 00:22:52;;;;;;;2.70;2.07;;;;;;;;;;743899;184;918758;-77
2021/05/11 00:25:18;;;;;;;3.65;2.37;;;;;;;;;;747428;186;919715;-75
2021/05/11 00:27:44;;;;;;;4.97;2.50;;;;;;;;;;748819;186;1022227;-77
2021/05/11 00:30:10;;;;;;;5.43;2.53;;;;;;;;;;743436;186;920071;-77
2021/05/11 00:32:36;;;;;;;5.60;2.30;;;;;;;;;;741295;187;958697;-77
2021/05/11 00:35:02;;;;;;;5.77;2.67;;;;;;;;;;748294;185;919356;-77
2021/05/11 00:37:28;;;;;;;4.30;2.30;;;;;;;;;;743040;186;919238;-76
2021/05/11 00:39:53;;;;;;;4.73;2.57;;;;;;;;;;743216;187;943199;-75
2021/05/11 00:42:20;;;;;;;4.67;2.60;;;;;;;;;;745537;184;919200;-74
2021/05/11 00:44:45;;;;;;;4.70;3.00;;;;;;;;;;747086;186;910829;-77
2021/05/11 00:47:11;;;;;;;3.33;2.45;;;;;;;;;;741835;186;953764;-75
2021/05/11 00:49:37;;;;;;;4.57;2.67;;;;;;;;;;746026;186;816235;-76
2021/05/11 00:52:03;;;;;;;8.23;2.60;;;;;;;;;;751998;186;817244;-76
2021/05/11 00:54:29;;;;;;;5.70;2.60;;;;;;;;;;742496;183;812005;-75
2021/05/11 00:56:55;;;;;;;4.63;2.63;;;;;;;;;;743066;185;916536;-75
2021/05/11 00:59:24;;;;;;;4.47;2.50;;;;;;;;;;748242;185;915965;-75
2021/05/11 01:01:46;;;;;;;5.77;2.73;;;;;;;;;;746327;187;919533;-75
2021/05/11 01:04:12;;;;;;;6.22;2.95;;;;;;;;;;743760;185;921572;-75
2021/05/11 01:06:38;;;;;;;4.90;2.87;;;;;;;;;;749448;186;919206;-75
2021/05/11 01:09:04;;;;;;;7.40;2.73;;;;;;;;;;749162;184;640458;-76
2021/05/11 01:11:30;;;;;;;5.10;3.13;;;;;;;;;;732283;188;917542;-75
2021/05/11 01:13:56;;;;;;;3.73;2.50;;;;;;;;;;735065;187;1009411;-75
2021/05/11 01:16:24;;;;;;;7.23;3.30;;;;;;;;;;742687;188;919408;-76
2021/05/11 01:18:47;;;;;;;6.03;2.97;;;;;;;;;;736339;186;918986;-75
2021/05/11 01:26:27;;;;;;;4.47;3.00;;;;;;;;;;745489;186;938453;-77
2021/05/11 01:44:08;;;;;;;6.10;3.67;;;;;;;;;;744202;186;917553;-76
2021/05/11 01:47:18;;;;;;;4.40;3.30;;;;;;;;;;744475;185;816467;-77
2021/05/11 01:49:19;;;;;;;5.27;3.43;;;;;;;;;;749252;185;918310;-78
2021/05/11 01:54:36;;;;;;;6.17;3.50;;;;;;;;;;742801;185;815233;-78
2021/05/11 01:57:10;;;;;;;8.20;3.80;;;;;;;;;;747341;186;778092;-77
2021/05/11 02:09:54;;;;;;;4.50;3.28;;;;;;;;;;751209;185;1079080;-77
2021/05/11 02:24:41;;;;;;;8.20;3.57;;;;;;;;;;747250;187;820885;-76
2021/05/11 02:27:07;;;;;;;5.93;3.25;;;;;;;;;;743766;186;918372;-75
2021/05/11 02:29:32;;;;;;;10.70;3.53;;;;;;;;;;751781;186;918586;-77
2021/05/11 02:31:58;;;;;;;7.20;3.80;;;;;;;;;;742951;186;816024;-76
2021/05/11 02:34:24;;;;;;;5.40;2.77;;;;;;;;;;744483;185;1007769;-77
2021/05/11 02:36:50;;;;;;;4.10;3.07;;;;;;;;;;750190;184;919363;-76
2021/05/11 02:39:16;;;;;;;5.13;3.03;;;;;;;;;;745315;186;918579;-77
2021/05/11 02:41:43;;;;;;;3.70;2.53;;;;;;;;;;732956;186;3050382;-76
2021/05/11 02:44:08;;;;;;;6.00;2.90;;;;;;;;;;745240;185;918932;-79
2021/05/11 02:46:34;;;;;;;6.10;2.40;;;;;;;;;;743689;185;821565;-77
2021/05/11 02:49:02;;;;;;;4.03;2.90;;;;;;;;;;744923;185;814121;-78
2021/05/11 02:51:26;;;;;;;3.93;2.70;;;;;;;;;;743272;186;918994;-76
2021/05/11 02:53:52;;;;;;;5.83;2.17;;;;;;;;;;747538;186;921067;-77
2021/05/11 02:56:18;;;;;;;8.73;2.80;;;;;;;;;;747155;187;915518;-79
2021/05/11 02:58:48;;;;;;;5.33;2.23;;;;;;;;;;742132;186;814908;-78
2021/05/11 03:01:10;;;;;;;4.33;2.20;;;;;;;;;;749233;187;917329;-76
2021/05/11 03:03:35;;;;;;;9.13;3.70;;;;;;;;;;740289;185;1385258;-77
2021/05/11 03:06:01;;;;;;;4.43;2.37;;;;;;;;;;744548;185;919306;-72
2021/05/11 03:08:28;;;;;;;3.22;2.40;;;;;;;;;;745534;184;919102;-76
2021/05/11 03:10:53;;;;;;;3.10;2.23;;;;;;;;;;751588;185;920575;-74
2021/05/11 03:13:19;;;;;;;3.50;2.30;;;;;;;;;;743330;185;919150;-75
2021/05/11 03:15:45;;;;;;;5.87;3.10;;;;;;;;;;744002;185;920612;-75
2021/05/11 03:18:11;;;;;;;4.20;2.20;;;;;;;;;;749622;185;919127;-75
2021/05/11 03:20:37;;;;;;;3.67;2.20;;;;;;;;;;744070;185;918577;-77
2021/05/11 03:23:03;;;;;;;3.73;2.00;;;;;;;;;;743557;185;918154;-73
2021/05/11 03:25:29;;;;;;;3.10;2.00;;;;;;;;;;750244;186;911162;-73
2021/05/11 03:27:57;;;;;;;8.83;3.00;;;;;;;;;;743008;185;911496;-76
2021/05/11 03:30:21;;;;;;;4.40;2.43;;;;;;;;;;740980;186;1015504;-75
2021/05/11 03:32:47;;;;;;;4.40;2.67;;;;;;;;;;748081;185;988729;-73
2021/05/11 03:35:13;;;;;;;3.92;2.17;;;;;;;;;;741104;187;913965;-74
2021/05/11 03:37:38;;;;;;;5.70;2.47;;;;;;;;;;743271;187;912807;-75
2021/05/11 03:40:05;;;;;;;7.30;2.20;;;;;;;;;;741606;183;913683;-70
2021/05/11 03:42:36;;;;;;;4.60;2.43;;;;;;;;;;748737;187;914179;-77
2021/05/11 03:45:01;;;;;;;6.30;2.40;;;;;;;;;;743770;187;910065;-75
2021/05/11 03:47:24;;;;;;;3.10;2.28;;;;;;;;;;749155;185;883992;-75
2021/05/11 03:49:49;;;;;;;3.70;2.70;;;;;;;;;;751357;184;1144135;-74
2021/05/11 03:52:15;;;;;;;5.07;2.40;;;;;;;;;;748584;185;794631;-70
2021/05/11 03:54:41;;;;;;;5.77;2.37;;;;;;;;;;744715;185;943617;-72
2021/05/11 03:57:06;;;;;;;5.83;2.20;;;;;;;;;;749090;186;916362;-72
2021/05/11 03:59:34;;;;;;;4.40;2.30;;;;;;;;;;741224;185;915959;-76
2021/05/11 04:01:58;;;;;;;3.30;2.40;;;;;;;;;;744553;185;914518;-74
2021/05/11 04:04:24;;;;;;;5.87;2.40;;;;;;;;;;744598;187;915571;-74
2021/05/11 04:06:50;;;;;;;5.60;2.50;;;;;;;;;;746649;187;915890;-71
2021/05/11 04:09:26;;;;;;;4.40;2.33;;;;;;;;;;745678;185;914917;-71
2021/05/11 04:12:12;;;;;;;5.57;3.10;;;;;;;;;;741492;186;913399;-71
2021/05/11 04:16:57;;;;;;;4.17;2.23;;;;;;;;;;748463;186;904904;-70
2021/05/11 04:19:22;;;;;;;3.97;2.30;;;;;;;;;;746970;186;916356;-72
2021/05/11 04:21:48;;;;;;;5.20;2.13;;;;;;;;;;743951;187;815748;-70
2021/05/11 04:24:15;;;;;;;3.90;2.10;;;;;;;;;;742816;186;918684;-73
2021/05/11 04:26:40;;;;;;;2.80;2.10;;;;;;;;;;750156;186;636760;-70
2021/05/11 04:29:06;;;;;;;4.10;1.90;;;;;;;;;;742304;187;918540;-70
2021/05/11 04:31:37;;;;;;;4.27;2.43;;;;;;;;;;741840;186;918241;-70
2021/05/11 04:33:58;;;;;;;7.50;2.40;;;;;;;;;;748579;187;919421;-70
2021/05/11 04:36:23;;;;;;;4.97;2.57;;;;;;;;;;740565;186;915581;-71
2021/05/11 04:38:49;;;;;;;3.97;2.83;;;;;;;;;;736200;188;2140558;-69
2021/05/11 04:41:15;;;;;;;8.27;2.67;;;;;;;;;;748570;186;912494;-70
2021/05/11 04:43:42;;;;;;;8.70;2.40;;;;;;;;;;744943;186;914057;-71
2021/05/11 04:46:15;;;;;;;4.60;2.00;;;;;;;;;;744388;187;916657;-71
2021/05/11 04:48:33;;;;;;;9.00;2.30;;;;;;;;;;749007;185;914331;-69
2021/05/11 04:50:59;;;;;;;4.43;2.30;;;;;;;;;;743868;186;917852;-73
2021/05/11 04:53:24;;;;;;;4.83;2.13;;;;;;;;;;741567;185;923362;-75
2021/05/11 04:55:50;;;;;;;3.73;1.97;;;;;;;;;;743270;185;912763;-70
2021/05/11 04:58:16;;;;;;;3.00;1.77;;;;;;;;;;747519;184;911313;-71
2021/05/11 05:00:42;;;;;;;4.20;2.43;;;;;;;;;;744092;185;923883;-70
2021/05/11 05:03:11;;;;;;;3.73;2.23;;;;;;;;;;742298;186;911986;-70
2021/05/11 05:05:34;;;;;;;4.60;1.87;;;;;;;;;;750206;186;919564;-70
2021/05/11 05:07:59;;;;;;;4.57;2.33;;;;;;;;;;744122;186;918514;-72
2021/05/11 05:10:25;;;;;;;7.20;4.03;;;;;;;;;;745084;187;919244;-71
2021/05/11 05:12:51;;;;;;;3.33;2.20;;;;;;;;;;746811;186;919389;-73
2021/05/11 05:15:17;;;;;;;7.40;2.67;;;;;;;;;;744106;186;919143;-74
2021/05/11 05:17:43;;;;;;;4.87;2.00;;;;;;;;;;741455;184;920480;-73
2021/05/11 05:20:09;;;;;;;4.63;1.97;;;;;;;;;;743041;185;919115;-71
2021/05/11 05:22:35;;;;;;;4.50;2.43;;;;;;;;;;753334;184;854728;-74
2021/05/11 05:25:10;;;;;;;5.17;2.03;;;;;;;;;;744019;185;1022738;-73
2021/05/11 05:27:38;;;;;;;3.30;1.80;;;;;;;;;;744787;186;918609;-72
2021/05/11 05:29:52;;;;;;;2.70;1.90;;;;;;;;;;746580;186;813131;-72
2021/05/11 05:32:18;;;;;;;7.72;2.22;;;;;;;;;;746185;185;918667;-74
2021/05/11 05:34:44;;;;;;;6.13;2.60;;;;;;;;;;743719;186;919261;-72
2021/05/11 05:37:10;;;;;;;6.70;2.43;;;;;;;;;;746317;187;1215906;-70
2021/05/11 05:39:40;;;;;;;3.07;1.90;;;;;;;;;;731380;185;3110708;-71
2021/05/11 05:42:02;;;;;;;3.97;2.35;;;;;;;;;;742771;187;918433;-71
2021/05/11 05:44:29;;;;;;;3.58;2.05;;;;;;;;;;743680;186;918474;-70
2021/05/11 05:46:55;;;;;;;4.00;2.10;;;;;;;;;;748163;185;918977;-72
2021/05/11 05:49:21;;;;;;;8.67;2.33;;;;;;;;;;745054;185;913735;-71
2021/05/11 05:51:49;;;;;;;5.53;2.20;;;;;;;;;;747881;185;619444;-70
2021/05/11 05:54:12;;;;;;;4.00;2.13;;;;;;;;;;750360;186;622148;-70
2021/05/11 05:56:38;;;;;;;5.13;2.10;;;;;;;;;;741452;187;918621;-68
2021/05/11 05:59:04;;;;;;;4.27;2.23;;;;;;;;;;744120;184;920435;-72
2021/05/11 06:01:30;;;;;;;6.07;2.20;;;;;;;;;;747367;187;920847;-69
2021/05/11 06:03:57;;;;;;;5.70;2.07;;;;;;;;;;742567;185;920331;-70
2021/05/11 06:06:22;;;;;;;3.47;1.80;;;;;;;;;;737440;187;1125782;-69
2021/05/11 06:08:48;;;;;;;9.70;2.40;;;;;;;;;;750024;186;915757;-71
2021/05/11 06:11:25;;;;;;;2.90;2.00;;;;;;;;;;746866;185;915015;-69
2021/05/11 06:13:54;;;;;;;3.20;2.00;;;;;;;;;;745076;186;1041635;-70
2021/05/11 06:18:43;;;;;;;6.33;3.40;;;;;;;;;;750826;185;914390;-70
2021/05/11 06:21:09;;;;;;;4.07;2.50;;;;;;;;;;742748;186;919891;-70
2021/05/11 06:23:35;;;;;;;3.90;2.40;;;;;;;;;;747575;184;918456;-70
2021/05/11 06:26:01;;;;;;;4.67;2.10;;;;;;;;;;741789;185;1020994;-69
2021/05/11 06:28:27;;;;;;;5.23;2.53;;;;;;;;;;750043;184;919300;-70
2021/05/11 06:30:52;;;;;;;5.60;1.83;;;;;;;;;;744782;186;918580;-69
2021/05/11 06:33:19;;;;;;;4.37;2.10;;;;;;;;;;748782;185;635990;-70
2021/05/11 06:35:47;;;;;;;3.87;2.13;;;;;;;;;;749150;185;919533;-70
2021/05/11 06:38:11;;;;;;;5.57;2.30;;;;;;;;;;747918;186;918833;-69
2021/05/11 06:40:39;;;;;;;6.70;1.93;;;;;;;;;;745308;185;920421;-74
2021/05/11 06:43:03;;;;;;;4.00;2.10;;;;;;;;;;748286;185;919226;-71
2021/05/11 06:48:07;;;;;;;6.03;2.20;;;;;;;;;;745241;185;886621;-68
2021/05/11 06:50:36;;;;;;;5.33;3.03;;;;;;;;;;745828;185;919243;-69
2021/05/11 06:55:29;;;;;;;5.40;2.80;;;;;;;;;;746569;187;918300;-65
2021/05/11 06:57:55;;;;;;;3.33;1.90;;;;;;;;;;740724;185;919654;-67
2021/05/11 07:00:21;;;;;;;7.00;3.03;;;;;;;;;;745033;186;914245;-70
2021/05/11 07:02:47;;;;;;;5.87;2.13;;;;;;;;;;748159;184;895392;-70
2021/05/11 07:05:12;;;;;;;3.97;2.03;;;;;;;;;;742761;187;919440;-68
2021/05/11 07:07:41;;;;;;;10.37;2.50;;;;;;;;;;741143;185;918843;-70
2021/05/11 07:10:14;;;;;;;6.53;2.33;;;;;;;;;;752154;186;862386;-67
2021/05/11 07:15:04;;;;;;;3.80;2.30;;;;;;;;;;742687;187;934581;-68
2021/05/11 07:17:30;;;;;;;3.17;2.00;;;;;;;;;;742049;186;919461;-68
2021/05/11 07:19:56;;;;;;;4.37;2.13;;;;;;;;;;747207;185;919585;-70
2021/05/11 07:22:22;;;;;;;3.23;1.73;;;;;;;;;;744166;185;919460;-68
2021/05/11 07:24:52;;;;;;;5.00;2.20;;;;;;;;;;747009;184;895360;-70
2021/05/11 07:27:34;;;;;;;3.50;2.00;;;;;;;;;;747884;186;918615;-67
2021/05/11 07:29:51;;;;;;;6.27;2.20;;;;;;;;;;747625;185;912878;-70
2021/05/11 07:32:11;;;;;;;6.33;2.27;;;;;;;;;;743402;186;919401;-70
2021/05/11 07:34:40;;;;;;;11.57;2.53;;;;;;;;;;744568;183;920212;-71
2021/05/11 07:37:02;;;;;;;3.60;2.27;;;;;;;;;;752213;186;897380;-67
2021/05/11 07:39:28;;;;;;;10.60;2.93;;;;;;;;;;744020;184;918925;-68
2021/05/11 07:41:53;;;;;;;3.20;2.00;;;;;;;;;;747768;187;807459;-68
2021/05/11 07:44:19;;;;;;;3.50;1.90;;;;;;;;;;750646;185;630254;-68
2021/05/11 07:46:54;;;;;;;6.20;2.47;;;;;;;;;;748865;185;618508;-67
2021/05/11 07:52:19;;;;;;;4.40;2.10;;;;;;;;;;743604;186;919206;-67
2021/05/11 08:03:47;;;;;;;4.10;1.90;;;;;;;;;;748100;186;919137;-70
2021/05/11 08:05:14;;;;;;;5.40;2.20;;;;;;;;;;741889;187;1143847;-70
2021/05/11 08:10:14;;;;;;;3.53;1.90;;;;;;;;;;745286;185;626238;-70
2021/05/11 08:15:31;;;;;;;3.33;2.00;;;;;;;;;;746735;185;922959;-73
2021/05/11 08:17:42;;;;;;;3.83;2.47;;;;;;;;;;746576;186;919011;-70
2021/05/11 08:20:18;;;;;;;4.40;2.10;;;;;;;;;;742565;185;919389;-70
2021/05/11 08:22:49;;;;;;;7.50;2.53;;;;;;;;;;743626;186;919831;-73
2021/05/11 08:30:17;;;;;;;7.70;2.40;;;;;;;;;;742910;186;918495;-71
2021/05/11 08:32:43;;;;;;;4.00;2.20;;;;;;;;;;745568;185;919521;-71
2021/05/11 08:35:09;;;;;;;3.75;2.20;;;;;;;;;;743313;185;918951;-69
2021/05/11 08:37:35;;;;;;;5.67;2.33;;;;;;;;;;749726;187;921490;-68
2021/05/11 08:40:01;;;;;;;5.27;2.00;;;;;;;;;;749267;184;918621;-68
2021/05/11 08:42:26;;;;;;;3.87;1.90;;;;;;;;;;742316;184;1184443;-66
2021/05/11 08:44:52;;;;;;;5.27;2.63;;;;;;;;;;744768;186;919777;-69
2021/05/11 08:47:20;;;;;;;3.50;2.20;;;;;;;;;;748843;186;918560;-67
2021/05/11 08:49:44;;;;;;;4.80;2.37;;;;;;;;;;745923;186;895189;-71
2021/05/11 08:52:21;;;;;;;4.23;2.63;;;;;;;;;;742030;187;918790;-67
2021/05/11 08:54:47;;;;;;;4.10;2.80;;;;;;;;;;749466;185;919385;-69
2021/05/11 09:07:33;;;;;;;3.43;2.20;;;;;;;;;;745648;185;919318;-69
2021/05/11 09:15:40;;;;;;;3.13;2.27;;;;;;;;;;743566;187;919381;-73
2021/05/11 09:25:14;;;;;;;3.40;2.00;;;;;;;;;;747522;186;918091;-67
2021/05/11 09:27:49;;;;;;;9.50;2.43;;;;;;;;;;741106;186;919657;-67
2021/05/11 09:30:26;;;;;;;3.80;2.20;;;;;;;;;;744893;186;918860;-68
2021/05/11 09:51:09;;;;;;;5.30;2.20;;;;;;;;;;743718;186;916170;-71
2021/05/11 09:56:16;;;;;;;4.90;2.23;;;;;;;;;;749399;186;920766;-69
2021/05/11 10:10:21;;;;;;;3.50;1.87;;;;;;;;;;743959;186;922388;-69
2021/05/11 10:31:24;;;;;;;4.73;2.40;;;;;;;;;;742654;187;924032;-69
2021/05/11 10:42:49;;;;;;;4.63;2.37;;;;;;;;;;744067;186;920671;-71
2021/05/11 10:46:21;;;;;;;4.30;2.10;;;;;;;;;;744778;185;917734;-67
2021/05/11 10:47:20;;;;;;;4.17;2.27;;;;;;;;;;745760;187;942677;-68
2021/05/11 10:49:46;;;;;;;4.07;2.00;;;;;;;;;;745338;186;919335;-67
2021/05/11 10:52:15;;;;;;;5.00;2.17;;;;;;;;;;742077;185;918885;-69
2021/05/11 10:54:41;;;;;;;4.93;2.57;;;;;;;;;;749072;185;919743;-70
2021/05/11 10:57:10;;;;;;;4.90;2.27;;;;;;;;;;744681;186;918513;-68
2021/05/11 10:59:44;;;;;;;7.10;2.60;;;;;;;;;;745084;186;919288;-68
2021/05/11 11:02:24;;;;;;;4.10;1.90;;;;;;;;;;745262;186;924911;-68
2021/05/11 11:04:33;;;;;;;4.83;2.37;;;;;;;;;;751256;186;623260;-67
2021/05/11 11:07:00;;;;;;;4.20;2.13;;;;;;;;;;742031;185;919092;-68
2021/05/11 11:09:25;;;;;;;10.27;2.60;;;;;;;;;;742978;187;1021936;-68
2021/05/11 11:11:51;;;;;;;7.97;2.33;;;;;;;;;;745209;185;918343;-68
2021/05/11 11:14:17;;;;;;;6.57;2.63;;;;;;;;;;749180;186;867786;-68
2021/05/11 11:16:43;;;;;;;4.37;2.10;;;;;;;;;;733891;186;2425989;-70
2021/05/11 11:19:09;;;;;;;3.23;1.83;;;;;;;;;;744972;185;918993;-69
2021/05/11 11:21:49;;;;;;;5.77;2.27;;;;;;;;;;747343;185;919241;-70
2021/05/11 11:24:10;;;;;;;4.00;1.87;;;;;;;;;;748257;185;925464;-68
2021/05/11 11:26:40;;;;;;;2.70;2.03;;;;;;;;;;744722;186;918697;-67
2021/05/11 11:29:03;;;;;;;5.40;2.37;;;;;;;;;;743439;186;919353;-69
2021/05/11 11:31:30;;;;;;;4.17;2.10;;;;;;;;;;749644;187;919724;-67
2021/05/11 11:34:01;;;;;;;4.93;3.70;;;;;;;;;;745028;185;918078;-71
2021/05/11 11:36:27;;;;;;;3.20;2.10;;;;;;;;;;747208;185;919277;-71
2021/05/11 11:38:54;;;;;;;3.43;2.20;;;;;;;;;;747649;184;888029;-69
2021/05/11 11:41:19;;;;;;;9.30;2.10;;;;;;;;;;749462;186;919123;-69
2021/05/11 11:43:45;;;;;;;5.50;2.43;;;;;;;;;;738046;187;919133;-69
2021/05/11 11:46:11;;;;;;;4.63;2.30;;;;;;;;;;742599;185;918370;-69
2021/05/11 11:48:37;;;;;;;4.03;2.20;;;;;;;;;;747022;185;917574;-68
2021/05/11 11:51:04;;;;;;;3.87;2.30;;;;;;;;;;743014;186;919066;-68
2021/05/11 11:53:30;;;;;;;9.63;2.80;;;;;;;;;;741837;185;1022251;-68
2021/05/11 11:56:11;;;;;;;2.77;1.87;;;;;;;;;;748777;185;919122;-68
2021/05/11 11:58:20;;;;;;;7.63;2.33;;;;;;;;;;742158;185;1130810;-68
2021/05/11 12:00:46;;;;;;;3.97;2.37;;;;;;;;;;745091;186;932962;-67
2021/05/11 12:03:13;;;;;;;8.20;2.23;;;;;;;;;;748635;185;632923;-67
2021/05/11 12:05:39;;;;;;;4.40;2.40;;;;;;;;;;747718;186;638773;-68
2021/05/11 12:08:21;;;;;;;7.20;2.53;;;;;;;;;;750808;184;631535;-69
2021/05/11 12:10:48;;;;;;;8.45;2.47;;;;;;;;;;749833;185;633603;-70
2021/05/11 12:13:14;;;;;;;3.10;2.17;;;;;;;;;;747540;186;634978;-66
2021/05/11 12:15:39;;;;;;;4.30;2.50;;;;;;;;;;751292;186;648603;-69
2021/05/11 12:18:09;;;;;;;4.20;2.43;;;;;;;;;;748126;185;622872;-70
2021/05/11 12:20:32;;;;;;;3.20;2.10;;;;;;;;;;745875;186;628395;-69
2021/05/11 12:23:02;;;;;;;4.70;2.50;;;;;;;;;;751701;185;625900;-68
2021/05/11 12:25:28;;;;;;;3.10;1.93;;;;;;;;;;747555;186;656872;-69
2021/05/11 12:27:53;;;;;;;3.60;2.40;;;;;;;;;;748416;187;630169;-69
2021/05/11 12:30:19;;;;;;;6.00;2.40;;;;;;;;;;746200;186;623295;-69
2021/05/11 12:32:45;;;;;;;4.83;2.30;;;;;;;;;;745644;186;643766;-72
2021/05/11 12:35:12;;;;;;;3.17;2.40;;;;;;;;;;743348;186;629594;-68
2021/05/11 12:37:43;;;;;;;4.87;2.67;;;;;;;;;;746898;186;647841;-69
2021/05/11 12:40:21;;;;;;;3.50;2.30;;;;;;;;;;749164;185;689395;-68
2021/05/11 12:42:35;;;;;;;4.23;2.50;;;;;;;;;;748857;186;641354;-71
2021/05/11 12:45:04;;;;;;;5.03;2.67;;;;;;;;;;744822;184;659153;-69
2021/05/11 12:47:46;;;;;;;8.87;2.70;;;;;;;;;;746360;187;633104;-68
2021/05/11 12:50:11;;;;;;;6.13;2.33;;;;;;;;;;745018;186;660561;-68
2021/05/11 12:52:37;;;;;;;4.73;1.93;;;;;;;;;;748942;185;1666933;-71
2021/05/11 12:55:10;;;;;;;3.60;2.20;;;;;;;;;;747230;185;613836;-69
2021/05/11 12:57:32;;;;;;;4.40;2.40;;;;;;;;;;746320;186;630110;-68
2021/05/11 13:00:09;;;;;;;3.23;2.57;;;;;;;;;;751733;185;625662;-67
2021/05/11 13:02:40;;;;;;;4.63;2.20;;;;;;;;;;748347;186;616425;-69
2021/05/11 13:09:21;;;;;;;5.17;2.60;;;;;;;;;;745399;185;709466;-68
2021/05/11 13:20:54;;;;;;;5.27;2.47;;;;;;;;;;752834;187;640525;-68
2021/05/11 13:25:48;;;;;;;3.10;2.07;;;;;;;;;;749391;187;632207;-70
2021/05/11 13:28:25;;;;;;;3.83;2.53;;;;;;;;;;746301;185;640001;-69
2021/05/11 13:30:59;;;;;;;3.77;2.80;;;;;;;;;;748026;185;628428;-71
2021/05/11 13:33:29;;;;;;;4.20;2.57;;;;;;;;;;751281;185;713465;-68
2021/05/11 13:35:50;;;;;;;4.20;2.50;;;;;;;;;;750032;184;631860;-70
2021/05/11 13:38:16;;;;;;;4.37;2.50;;;;;;;;;;745351;186;615985;-70
2021/05/11 13:40:41;;;;;;;4.10;2.00;;;;;;;;;;747645;187;673065;-70
2021/05/11 13:43:07;;;;;;;4.23;2.27;;;;;;;;;;749995;187;614728;-70
2021/05/11 13:45:41;;;;;;;4.60;2.93;;;;;;;;;;749465;185;621252;-67
2021/05/11 13:48:14;;;;;;;8.03;2.33;;;;;;;;;;747328;186;643961;-69
2021/05/11 13:53:05;;;;;;;7.03;2.53;;;;;;;;;;742351;184;714945;-69
2021/05/11 13:55:40;;;;;;;3.80;3.10;;;;;;;;;;746523;185;633657;-70
2021/05/11 14:03:02;;;;;;;5.43;2.43;;;;;;;;;;751216;184;616582;-70
2021/05/11 14:05:28;;;;;;;6.90;3.03;;;;;;;;;;747886;186;630501;-70
2021/05/11 14:07:54;;;;;;;4.70;2.63;;;;;;;;;;745585;185;626448;-69
2021/05/11 14:10:19;;;;;;;5.17;3.03;;;;;;;;;;749319;187;620916;-67
2021/05/11 14:12:45;;;;;;;7.80;2.50;;;;;;;;;;742933;186;632995;-69
2021/05/11 14:15:11;;;;;;;8.33;2.67;;;;;;;;;;745285;185;752708;-67
2021/05/11 14:17:37;;;;;;;5.90;2.63;;;;;;;;;;748826;187;628704;-68
2021/05/11 14:20:03;;;;;;;5.27;2.60;;;;;;;;;;749332;185;630554;-67
2021/05/11 14:22:29;;;;;;;5.67;2.30;;;;;;;;;;746158;187;633988;-68
2021/05/11 14:24:55;;;;;;;6.47;3.27;;;;;;;;;;745705;184;630910;-71
2021/05/11 14:27:21;;;;;;;4.43;2.80;;;;;;;;;;751823;186;629612;-68
2021/05/11 14:29:47;;;;;;;4.00;2.50;;;;;;;;;;745097;185;631139;-72
2021/05/11 14:32:13;;;;;;;4.17;2.63;;;;;;;;;;749391;185;621924;-71
2021/05/11 14:34:40;;;;;;;5.83;2.50;;;;;;;;;;750984;184;690450;-68
2021/05/11 14:37:04;;;;;;;3.60;2.90;;;;;;;;;;748604;185;1075346;-72
2021/05/11 14:39:30;;;;;;;3.85;3.05;;;;;;;;;;747506;185;655854;-69
2021/05/11 14:41:56;;;;;;;4.97;2.83;;;;;;;;;;751693;186;618622;-70
2021/05/11 14:44:22;;;;;;;3.53;2.43;;;;;;;;;;747025;185;622409;-73
2021/05/11 14:46:48;;;;;;;4.70;2.80;;;;;;;;;;748462;186;634401;-68
2021/05/11 14:49:18;;;;;;;5.33;2.93;;;;;;;;;;748078;185;632779;-69
2021/05/11 14:51:44;;;;;;;4.83;3.23;;;;;;;;;;750097;187;623389;-70
2021/05/11 14:54:10;;;;;;;5.10;3.07;;;;;;;;;;747129;185;637294;-69
2021/05/11 14:56:39;;;;;;;4.00;2.23;;;;;;;;;;745285;185;638147;-71
2021/05/11 14:59:01;;;;;;;4.57;2.53;;;;;;;;;;750702;185;616963;-71
2021/05/11 15:01:27;;;;;;;7.30;2.63;;;;;;;;;;747173;185;810871;-72
2021/05/11 15:03:53;;;;;;;4.83;3.20;;;;;;;;;;748597;185;621540;-69
2021/05/11 15:06:19;;;;;;;7.80;3.10;;;;;;;;;;747899;186;632354;-68
2021/05/11 15:08:45;;;;;;;4.73;3.17;;;;;;;;;;751553;184;615575;-70
2021/05/11 15:11:10;;;;;;;7.20;3.40;;;;;;;;;;745343;186;654574;-71
2021/05/11 15:13:38;;;;;;;4.63;3.00;;;;;;;;;;742544;185;1532801;-70
2021/05/11 15:16:06;;;;;;;5.60;3.00;;;;;;;;;;751016;185;635932;-68
2021/05/11 15:18:28;;;;;;;7.00;4.00;;;;;;;;;;748556;185;637428;-70
2021/05/11 15:20:54;;;;;;;6.60;2.90;;;;;;;;;;722992;186;5225864;-69
2021/05/11 15:23:20;;;;;;;8.37;2.50;;;;;;;;;;749295;186;625139;-71
2021/05/11 15:25:46;;;;;;;4.83;2.83;;;;;;;;;;747101;187;616931;-72
2021/05/11 15:28:11;;;;;;;6.20;3.70;;;;;;;;;;745054;187;635294;-70
2021/05/11 15:30:37;;;;;;;7.93;3.33;;;;;;;;;;751010;185;620575;-69
2021/05/11 15:33:04;;;;;;;5.10;2.77;;;;;;;;;;744896;185;619943;-73
2021/05/11 15:35:29;;;;;;;9.47;3.20;;;;;;;;;;746905;185;641949;-70
2021/05/11 15:37:58;;;;;;;6.67;3.37;;;;;;;;;;746219;186;639158;-72
2021/05/11 15:40:22;;;;;;;5.70;3.50;;;;;;;;;;752153;187;636380;-68
2021/05/11 15:42:48;;;;;;;6.93;3.07;;;;;;;;;;747356;184;652461;-71
2021/05/11 15:45:14;;;;;;;5.57;3.13;;;;;;;;;;750805;185;630200;-71
2021/05/11 15:48:01;;;;;;;6.43;3.93;;;;;;;;;;750394;186;631895;-70
2021/05/11 15:50:38;;;;;;;5.03;4.00;;;;;;;;;;751445;186;634214;-71
2021/05/11 15:53:07;;;;;;;8.30;3.77;;;;;;;;;;750107;183;623233;-72
2021/05/11 15:55:33;;;;;;;4.63;3.23;;;;;;;;;;747625;186;618697;-68
2021/05/11 15:57:58;;;;;;;4.50;3.30;;;;;;;;;;745964;185;629967;-70
2021/05/11 16:00:24;;;;;;;6.47;3.40;;;;;;;;;;748515;186;622719;-67
2021/05/11 16:02:50;;;;;;;4.27;2.90;;;;;;;;;;755969;183;918344;-70
2021/05/11 16:05:16;;;;;;;5.00;3.13;;;;;;;;;;743377;185;920049;-69
2021/05/11 16:07:42;;;;;;;5.57;2.93;;;;;;;;;;741655;185;1024542;-69
2021/05/11 16:10:08;;;;;;;4.87;3.17;;;;;;;;;;748650;185;1021178;-71
2021/05/11 16:12:34;;;;;;;4.97;3.23;;;;;;;;;;747923;186;919386;-69
2021/05/11 16:15:00;;;;;;;4.33;2.70;;;;;;;;;;742089;187;919512;-72
2021/05/11 16:17:26;;;;;;;5.80;3.77;;;;;;;;;;748239;186;919457;-73
2021/05/11 16:19:51;;;;;;;4.53;3.10;;;;;;;;;;740464;185;920036;-68
2021/05/11 16:22:17;;;;;;;7.97;3.20;;;;;;;;;;742398;187;918899;-72
2021/05/11 16:24:44;;;;;;;9.60;3.13;;;;;;;;;;747939;185;920893;-65
2021/05/11 16:27:10;;;;;;;9.23;3.30;;;;;;;;;;743896;185;933182;-71
2021/05/11 16:29:36;;;;;;;5.03;3.80;;;;;;;;;;744112;184;919958;-72
2021/05/11 16:32:04;;;;;;;6.10;3.00;;;;;;;;;;743878;185;919345;-70
2021/05/11 16:34:28;;;;;;;6.13;2.57;;;;;;;;;;748872;185;919663;-67
2021/05/11 16:36:54;;;;;;;8.20;4.80;;;;;;;;;;747252;188;816234;-69
2021/05/11 16:39:20;;;;;;;6.77;3.00;;;;;;;;;;742356;185;919105;-72
2021/05/11 16:41:46;;;;;;;4.50;3.00;;;;;;;;;;748596;184;918914;-69
2021/05/11 16:44:11;;;;;;;5.50;3.60;;;;;;;;;;742996;186;919754;-68
2021/05/11 16:46:38;;;;;;;3.73;2.90;;;;;;;;;;745404;184;1021403;-71
2021/05/11 16:49:03;;;;;;;4.67;2.90;;;;;;;;;;751689;185;621499;-69
2021/05/11 16:51:29;;;;;;;7.17;3.43;;;;;;;;;;738648;187;2076931;-71
2021/05/11 16:53:55;;;;;;;7.87;3.60;;;;;;;;;;747408;186;634263;-68
2021/05/11 16:56:21;;;;;;;5.67;3.40;;;;;;;;;;748433;184;637685;-70
2021/05/11 16:58:48;;;;;;;4.40;3.13;;;;;;;;;;753499;184;635027;-71
2021/05/11 17:01:13;;;;;;;4.53;2.57;;;;;;;;;;747986;186;647591;-69
2021/05/11 17:03:39;;;;;;;5.90;3.07;;;;;;;;;;749733;185;630473;-71
2021/05/11 17:06:05;;;;;;;6.90;3.00;;;;;;;;;;749987;186;615270;-70
2021/05/11 17:08:30;;;;;;;4.40;2.93;;;;;;;;;;748744;185;619705;-72
2021/05/11 17:10:56;;;;;;;4.77;3.00;;;;;;;;;;747377;186;627067;-68
2021/05/11 17:13:22;;;;;;;10.60;3.67;;;;;;;;;;752324;185;626885;-66
2021/05/11 17:15:52;;;;;;;9.20;3.60;;;;;;;;;;745503;185;693528;-67
2021/05/11 17:18:14;;;;;;;5.97;3.00;;;;;;;;;;748246;186;617884;-68
2021/05/11 17:20:41;;;;;;;5.50;3.23;;;;;;;;;;747233;185;618795;-69
2021/05/11 17:23:06;;;;;;;8.60;3.30;;;;;;;;;;751807;185;618427;-67
2021/05/11 17:25:32;;;;;;;4.93;2.83;;;;;;;;;;747434;187;635443;-66
2021/05/11 17:28:01;;;;;;;5.07;3.50;;;;;;;;;;745955;185;739786;-67
2021/05/11 17:30:24;;;;;;;8.93;2.60;;;;;;;;;;751225;187;627961;-67